createdAt,value
2019-05-17T00:00:07.501Z,83.70
2019-05-17T00:02:37.486Z,83.50
2019-05-17T00:05:06.961Z,83.90
2019-05-17T00:07:36.959Z,83.80
2019-05-17T00:10:08.820Z,83.90
2019-05-17T00:12:37.129Z,83.90
2019-05-17T00:15:07.706Z,84.10
2019-05-17T00:17:37.747Z,85.10
2019-05-17T00:20:07.154Z,84.00
2019-05-17T00:22:36.622Z,84.40
2019-05-17T00:25:07.391Z,84.40
2019-05-17T00:27:36.783Z,84.30
2019-05-17T00:30:08.800Z,84.30
2019-05-17T00:32:37.124Z,84.70
2019-05-17T00:35:07.592Z,84.50
2019-05-17T00:37:37.279Z,84.60
2019-05-17T00:40:07.523Z,84.50
2019-05-17T00:42:37.233Z,84.10
2019-05-17T00:45:06.911Z,84.10
2019-05-17T00:47:37.217Z,84.10
2019-05-17T00:50:07.374Z,84.80
2019-05-17T00:52:36.817Z,85.00
2019-05-17T00:55:08.459Z,85.80
2019-05-17T00:57:37.129Z,85.20
2019-05-17T01:00:08.615Z,85.50
2019-05-17T01:02:37.000Z,85.30
2019-05-17T01:05:06.584Z,85.20
2019-05-17T01:07:37.401Z,85.50
2019-05-17T01:10:07.325Z,84.90
2019-05-17T01:12:36.537Z,84.80
2019-05-17T01:15:07.448Z,84.90
2019-05-17T01:17:36.543Z,85.10
2019-05-17T01:20:07.941Z,85.50
2019-05-17T01:22:36.750Z,85.50
2019-05-17T01:25:08.201Z,85.00
2019-05-17T01:27:38.206Z,85.10
2019-05-17T01:30:07.040Z,85.30
2019-05-17T01:32:37.478Z,85.90
2019-05-17T01:35:07.264Z,85.20
2019-05-17T01:37:37.010Z,85.60
2019-05-17T01:40:07.224Z,85.20
2019-05-17T01:42:37.454Z,85.60
2019-05-17T01:45:07.302Z,87.30
2019-05-17T01:47:36.797Z,86.40
2019-05-17T01:50:08.324Z,86.00
2019-05-17T01:52:37.015Z,86.00
2019-05-17T01:55:06.825Z,86.10
2019-05-17T01:57:36.996Z,85.80
2019-05-17T02:00:07.550Z,85.70
2019-05-17T02:02:40.315Z,85.50
2019-05-17T02:05:08.647Z,85.40
2019-05-17T02:07:37.323Z,85.40
2019-05-17T02:10:07.622Z,85.20
2019-05-17T02:12:37.169Z,85.50
2019-05-17T02:15:10.346Z,85.70
2019-05-17T02:17:38.849Z,85.90
2019-05-17T02:20:07.621Z,85.90
2019-05-17T02:22:36.802Z,86.30
2019-05-17T02:25:08.209Z,86.60
2019-05-17T02:27:41.249Z,86.20
2019-05-17T02:30:07.104Z,86.10
2019-05-17T02:32:35.447Z,86.50
2019-05-17T02:35:04.109Z,87.20
2019-05-17T02:37:33.398Z,87.10
2019-05-17T02:40:07.704Z,87.10
2019-05-17T02:42:33.370Z,87.20
2019-05-17T02:45:03.263Z,87.00
2019-05-17T02:47:33.720Z,86.80
2019-05-17T02:50:05.186Z,87.70
2019-05-17T02:52:32.907Z,86.90
2019-05-17T02:55:04.162Z,86.40
2019-05-17T02:57:34.412Z,86.80
2019-05-17T03:00:04.348Z,87.30
2019-05-17T03:02:34.118Z,87.00
2019-05-17T03:05:03.909Z,86.70
2019-05-17T03:07:32.625Z,87.10
2019-05-17T03:10:16.521Z,87.10
2019-05-17T03:12:32.886Z,87.20
2019-05-17T03:15:04.160Z,87.30
2019-05-17T03:17:33.876Z,87.90
2019-05-17T03:20:03.916Z,86.90
2019-05-17T03:22:33.248Z,86.50
2019-05-17T03:25:03.317Z,86.40
2019-05-17T03:27:33.501Z,86.30
2019-05-17T03:30:04.187Z,86.60
2019-05-17T03:32:36.260Z,86.60
2019-05-17T03:35:06.209Z,86.60
2019-05-17T03:37:36.802Z,87.00
2019-05-17T03:40:04.571Z,86.80
2019-05-17T03:42:33.106Z,86.60
2019-05-17T03:45:02.863Z,86.70
2019-05-17T03:47:33.401Z,87.10
2019-05-17T03:50:03.080Z,86.60
2019-05-17T03:52:33.105Z,86.20
2019-05-17T03:55:03.540Z,86.40
2019-05-17T03:57:33.455Z,86.80
2019-05-17T04:00:03.799Z,86.60
2019-05-17T04:02:32.669Z,87.40
2019-05-17T04:05:04.177Z,88.00
2019-05-17T04:07:32.787Z,87.40
2019-05-17T04:10:04.416Z,87.60
2019-05-17T04:12:32.730Z,87.70
2019-05-17T04:15:03.222Z,87.40
2019-05-17T04:17:32.793Z,87.40
2019-05-17T04:20:03.452Z,87.30
2019-05-17T04:22:33.094Z,87.80
2019-05-17T04:25:02.955Z,87.80
2019-05-17T04:27:32.644Z,87.80
2019-05-17T04:30:03.722Z,88.00
2019-05-17T04:32:33.086Z,88.30
2019-05-17T04:35:03.696Z,88.60
2019-05-17T04:37:33.992Z,88.70
2019-05-17T04:40:03.629Z,88.60
2019-05-17T04:42:33.102Z,89.50
2019-05-17T04:45:03.616Z,89.50
2019-05-17T04:47:33.271Z,90.00
2019-05-17T04:50:03.987Z,89.40
2019-05-17T04:52:33.649Z,90.00
2019-05-17T04:55:04.083Z,90.10
2019-05-17T04:57:32.571Z,90.70
2019-05-17T05:00:04.262Z,91.10
2019-05-17T05:02:33.073Z,92.10
2019-05-17T05:05:03.390Z,91.80
2019-05-17T05:07:33.623Z,91.50
2019-05-17T05:10:02.927Z,91.50
2019-05-17T05:12:33.503Z,91.70
2019-05-17T05:15:03.525Z,91.00
2019-05-17T05:17:32.999Z,91.10
2019-05-17T05:20:02.796Z,91.10
2019-05-17T05:22:33.083Z,91.10
2019-05-17T05:25:02.136Z,90.80
2019-05-17T05:27:31.641Z,90.70
2019-05-17T05:30:00.016Z,90.70
2019-05-17T05:32:28.274Z,90.70
2019-05-17T05:34:56.521Z,90.30
2019-05-17T05:37:24.834Z,90.10
2019-05-17T05:39:54.653Z,89.70
2019-05-17T05:42:23.016Z,89.50
2019-05-17T05:44:52.260Z,89.10
2019-05-17T05:47:22.185Z,88.90
2019-05-17T05:49:52.063Z,88.60
2019-05-17T05:52:21.869Z,88.20
2019-05-17T05:54:52.069Z,88.60
2019-05-17T05:57:21.919Z,88.70
2019-05-17T05:59:51.851Z,88.20
2019-05-17T06:02:21.760Z,87.20
2019-05-17T06:04:51.868Z,86.20
2019-05-17T06:07:21.645Z,86.40
2019-05-17T06:09:51.743Z,86.60
2019-05-17T06:12:24.836Z,85.70
2019-05-17T06:14:52.232Z,85.00
2019-05-17T06:17:21.583Z,84.60
2019-05-17T06:19:51.704Z,84.30
2019-05-17T06:22:22.237Z,84.30
2019-05-17T06:24:52.055Z,83.60
2019-05-17T06:27:21.550Z,84.00
2019-05-17T06:29:51.483Z,83.90
2019-05-17T06:32:22.529Z,84.10
2019-05-17T06:34:51.512Z,83.30
2019-05-17T06:37:22.197Z,82.30
2019-05-17T06:39:52.495Z,80.50
2019-05-17T06:42:21.622Z,80.80
2019-05-17T06:44:52.257Z,79.60
2019-05-17T06:47:22.395Z,79.10
2019-05-17T06:49:50.622Z,79.40
2019-05-17T06:52:22.510Z,78.30
2019-05-17T06:54:52.315Z,78.10
2019-05-17T06:57:20.029Z,77.30
2019-05-17T06:59:48.302Z,77.30
2019-05-17T07:02:16.537Z,78.00
2019-05-17T07:04:44.785Z,77.50
2019-05-17T07:07:23.616Z,76.40
2019-05-17T07:09:51.901Z,75.70
2019-05-17T07:12:20.378Z,74.70
2019-05-17T07:14:50.695Z,74.20
2019-05-17T07:17:19.741Z,73.80
2019-05-17T07:19:50.580Z,74.00
2019-05-17T07:22:18.084Z,72.30
2019-05-17T07:24:46.396Z,72.50
2019-05-17T07:27:14.672Z,71.30
2019-05-17T07:29:42.987Z,70.90
2019-05-17T07:32:11.248Z,71.30
2019-05-17T07:34:40.195Z,70.50
2019-05-17T07:37:10.587Z,70.20
2019-05-17T07:39:40.088Z,70.30
2019-05-17T07:42:09.653Z,70.50
2019-05-17T07:44:40.148Z,69.50
2019-05-17T07:47:09.708Z,69.70
2019-05-17T07:49:40.338Z,70.50
2019-05-17T07:52:10.200Z,68.30
2019-05-17T07:54:39.896Z,68.30
2019-05-17T07:57:10.342Z,68.50
2019-05-17T07:59:39.745Z,68.00
2019-05-17T08:02:10.450Z,68.60
2019-05-17T08:04:40.495Z,68.60
2019-05-17T08:07:10.413Z,67.40
2019-05-17T08:09:40.268Z,67.60
2019-05-17T08:12:10.850Z,66.80
2019-05-17T08:14:39.892Z,67.80
2019-05-17T08:17:10.095Z,66.30
2019-05-17T08:19:40.129Z,67.10
2019-05-17T08:22:09.795Z,66.60
2019-05-17T08:24:39.811Z,64.50
2019-05-17T08:27:07.718Z,66.00
2019-05-17T08:29:35.972Z,65.10
2019-05-17T08:32:04.217Z,63.20
2019-05-17T08:34:32.454Z,63.90
2019-05-17T08:37:01.071Z,62.00
2019-05-17T08:39:30.235Z,61.80
2019-05-17T08:42:01.211Z,62.00
2019-05-17T08:44:29.883Z,62.50
2019-05-17T08:46:59.479Z,60.90
2019-05-17T08:49:29.551Z,59.50
2019-05-17T08:51:59.435Z,59.30
2019-05-17T08:54:30.294Z,59.40
2019-05-17T08:56:57.813Z,59.40
2019-05-17T08:59:26.079Z,59.10
2019-05-17T09:01:54.313Z,60.30
2019-05-17T09:04:22.656Z,60.70
2019-05-17T09:06:50.894Z,59.10
2019-05-17T09:09:20.412Z,58.80
2019-05-17T09:11:50.130Z,59.40
2019-05-17T09:14:18.593Z,58.30
2019-05-17T09:16:46.817Z,58.40
2019-05-17T09:19:15.068Z,57.80
2019-05-17T09:21:43.292Z,57.50
2019-05-17T09:24:11.572Z,58.50
2019-05-17T09:26:40.072Z,59.70
2019-05-17T09:29:10.602Z,58.00
2019-05-17T09:31:40.400Z,58.50
2019-05-17T09:34:09.641Z,58.00
2019-05-17T09:36:40.623Z,58.30
2019-05-17T09:39:09.476Z,56.90
2019-05-17T09:41:39.734Z,57.60
2019-05-17T09:44:15.163Z,57.00
2019-05-17T09:46:39.540Z,56.90
2019-05-17T09:49:10.195Z,57.70
2019-05-17T09:51:39.596Z,58.00
2019-05-17T09:54:10.094Z,56.80
2019-05-17T09:56:39.468Z,56.20
2019-05-17T09:59:09.749Z,55.40
2019-05-17T10:01:39.422Z,55.40
2019-05-17T10:04:07.658Z,57.70
2019-05-17T10:06:35.954Z,55.50
2019-05-17T10:09:05.654Z,56.30
2019-05-17T10:11:33.884Z,56.70
2019-05-17T10:14:02.289Z,56.20
2019-05-17T10:16:30.860Z,54.20
2019-05-17T10:19:00.084Z,52.90
2019-05-17T10:21:30.379Z,54.70
2019-05-17T10:24:00.178Z,55.00
2019-05-17T10:26:30.376Z,53.80
2019-05-17T10:28:59.421Z,52.40
2019-05-17T10:31:30.258Z,53.10
2019-05-17T10:33:58.911Z,54.20
2019-05-17T10:36:29.403Z,54.10
2019-05-17T10:38:59.279Z,52.80
2019-05-17T10:41:29.966Z,52.60
2019-05-17T10:43:57.628Z,52.90
2019-05-17T10:46:25.887Z,52.40
2019-05-17T10:48:54.102Z,52.20
2019-05-17T10:51:22.359Z,52.00
2019-05-17T10:53:51.440Z,50.20
2019-05-17T10:56:23.344Z,50.90
2019-05-17T10:58:50.063Z,51.00
2019-05-17T11:01:20.043Z,49.80
2019-05-17T11:03:50.260Z,50.60
2019-05-17T11:06:19.762Z,50.10
2019-05-17T11:08:50.111Z,49.70
2019-05-17T11:11:20.033Z,50.80
2019-05-17T11:13:48.317Z,50.30
2019-05-17T11:16:16.572Z,52.30
2019-05-17T11:18:44.803Z,51.10
2019-05-17T11:21:13.082Z,49.80
2019-05-17T11:23:41.401Z,48.50
2019-05-17T11:26:09.700Z,50.60
2019-05-17T11:28:37.968Z,51.00
2019-05-17T11:31:06.213Z,50.70
2019-05-17T11:33:34.533Z,50.00
2019-05-17T11:36:02.769Z,50.00
2019-05-17T11:38:31.026Z,48.10
2019-05-17T11:40:59.292Z,48.60
2019-05-17T11:43:27.616Z,49.20
2019-05-17T11:45:55.845Z,48.10
2019-05-17T11:48:24.104Z,46.60
2019-05-17T11:50:55.059Z,46.10
2019-05-17T11:53:22.343Z,46.20
2019-05-17T11:55:50.584Z,47.60
2019-05-17T11:58:18.853Z,45.90
2019-05-17T12:00:47.096Z,46.90
2019-05-17T12:03:15.344Z,46.90
2019-05-17T12:05:43.590Z,47.60
2019-05-17T12:08:11.844Z,45.80
2019-05-17T12:10:40.098Z,45.70
2019-05-17T12:13:08.542Z,44.70
2019-05-17T12:15:45.134Z,44.10
2019-05-17T12:18:06.793Z,42.70
2019-05-17T12:20:35.288Z,44.20
2019-05-17T12:23:03.554Z,42.70
2019-05-17T12:25:31.777Z,43.40
2019-05-17T12:28:00.029Z,45.50
2019-05-17T12:30:28.267Z,42.20
2019-05-17T12:32:56.517Z,42.40
2019-05-17T12:35:24.762Z,43.80
2019-05-17T12:37:53.029Z,42.90
2019-05-17T12:40:21.270Z,43.70
2019-05-17T12:42:49.508Z,42.00
2019-05-17T12:45:17.764Z,44.10
2019-05-17T12:47:45.995Z,41.60
2019-05-17T12:50:14.254Z,40.30
2019-05-17T12:52:42.521Z,41.50
2019-05-17T12:55:10.769Z,41.00
2019-05-17T12:57:39.000Z,40.90
2019-05-17T13:00:07.600Z,41.50
2019-05-17T13:02:35.838Z,43.10
2019-05-17T13:05:04.945Z,41.40
2019-05-17T13:07:33.191Z,41.00
2019-05-17T13:10:01.521Z,40.20
2019-05-17T13:12:29.856Z,40.80
2019-05-17T13:14:58.119Z,38.20
2019-05-17T13:17:26.355Z,39.90
2019-05-17T13:19:54.610Z,39.20
2019-05-17T13:22:22.946Z,38.10
2019-05-17T13:24:51.181Z,39.20
2019-05-17T13:27:19.449Z,39.50
2019-05-17T13:29:47.782Z,38.60
2019-05-17T13:32:16.071Z,39.20
2019-05-17T13:34:44.329Z,38.90
2019-05-17T13:37:12.555Z,37.30
2019-05-17T13:39:40.808Z,37.30
2019-05-17T13:42:09.060Z,37.70
2019-05-17T13:44:37.306Z,37.70
2019-05-17T13:47:05.558Z,38.80
2019-05-17T13:49:33.810Z,38.70
2019-05-17T13:52:02.167Z,38.40
2019-05-17T13:54:30.707Z,39.50
2019-05-17T13:56:58.986Z,40.80
2019-05-17T13:59:27.218Z,41.90
2019-05-17T14:01:55.472Z,40.20
2019-05-17T14:04:23.702Z,39.00
2019-05-17T14:06:51.981Z,39.20
2019-05-17T14:09:20.289Z,39.40
2019-05-17T14:11:48.549Z,38.40
2019-05-17T14:14:16.784Z,39.20
2019-05-17T14:16:45.044Z,39.30
2019-05-17T14:19:13.369Z,38.60
2019-05-17T14:21:41.690Z,39.30
2019-05-17T14:24:09.945Z,39.30
2019-05-17T14:26:38.199Z,38.80
2019-05-17T14:29:06.952Z,41.80
2019-05-17T14:31:35.206Z,39.10
2019-05-17T14:34:03.481Z,39.80
2019-05-17T14:36:31.761Z,38.70
2019-05-17T14:39:00.006Z,37.70
2019-05-17T14:41:28.293Z,39.10
2019-05-17T14:43:56.544Z,39.40
2019-05-17T14:46:24.800Z,40.00
2019-05-17T14:48:53.058Z,39.20
2019-05-17T14:51:21.319Z,40.00
2019-05-17T14:53:52.734Z,40.10
2019-05-17T14:56:21.163Z,41.00
2019-05-17T14:58:49.416Z,41.80
2019-05-17T15:01:17.681Z,40.60
2019-05-17T15:03:45.949Z,41.90
2019-05-17T15:06:14.353Z,42.40
2019-05-17T15:08:42.602Z,42.60
2019-05-17T15:11:10.840Z,42.30
2019-05-17T15:13:39.086Z,42.90
2019-05-17T15:16:07.330Z,43.50
2019-05-17T15:18:35.586Z,44.50
2019-05-17T15:21:03.831Z,44.40
2019-05-17T15:23:32.091Z,46.60
2019-05-17T15:26:00.321Z,47.20
2019-05-17T15:28:28.589Z,47.90
2019-05-17T15:30:56.833Z,48.60
2019-05-17T15:33:25.100Z,51.80
2019-05-17T15:35:53.324Z,53.10
2019-05-17T15:38:21.630Z,49.00
2019-05-17T15:40:49.904Z,54.00
2019-05-17T15:43:18.146Z,57.10
2019-05-17T15:45:46.392Z,61.60
2019-05-17T15:48:14.660Z,68.70
2019-05-17T15:50:42.906Z,71.30
2019-05-17T15:53:11.176Z,73.20
2019-05-17T15:55:39.422Z,76.30
2019-05-17T15:58:07.653Z,78.30
2019-05-17T16:00:35.929Z,81.50
2019-05-17T16:03:04.158Z,82.30
2019-05-17T16:05:32.450Z,81.50
2019-05-17T16:08:00.696Z,82.80
2019-05-17T16:10:28.965Z,82.70
2019-05-17T16:13:02.383Z,83.60
2019-05-17T16:15:27.187Z,84.90
2019-05-17T16:17:55.447Z,83.40
2019-05-17T16:20:23.725Z,84.60
2019-05-17T16:22:51.970Z,81.90
2019-05-17T16:25:20.315Z,84.40
2019-05-17T16:27:48.559Z,85.30
2019-05-17T16:30:16.809Z,84.90
2019-05-17T16:32:45.054Z,82.80
2019-05-17T16:35:13.679Z,81.90
2019-05-17T16:37:41.934Z,82.10
2019-05-17T16:40:10.194Z,81.30
2019-05-17T16:42:38.428Z,81.50
2019-05-17T16:45:06.766Z,80.50
2019-05-17T16:47:35.006Z,80.70
2019-05-17T16:50:04.522Z,80.10
2019-05-17T16:52:32.775Z,80.00
2019-05-17T16:55:01.034Z,77.00
2019-05-17T16:57:29.292Z,78.10
2019-05-17T16:59:57.531Z,78.00
2019-05-17T17:02:25.766Z,80.60
2019-05-17T17:04:54.009Z,81.10
2019-05-17T17:07:22.253Z,80.30
2019-05-17T17:09:50.519Z,80.70
2019-05-17T17:12:18.757Z,81.00
2019-05-17T17:14:46.978Z,81.90
2019-05-17T17:17:15.251Z,77.60
2019-05-17T17:19:43.479Z,78.00
2019-05-17T17:22:11.827Z,76.10
2019-05-17T17:24:40.060Z,76.60
2019-05-17T17:27:08.328Z,77.10
2019-05-17T17:29:36.556Z,76.60
2019-05-17T17:32:04.926Z,76.80
2019-05-17T17:34:33.223Z,75.80
2019-05-17T17:37:01.490Z,75.20
2019-05-17T17:39:29.741Z,78.50
2019-05-17T17:41:58.015Z,79.90
2019-05-17T17:44:26.267Z,81.90
2019-05-17T17:46:54.550Z,83.90
2019-05-17T17:49:22.802Z,84.40
2019-05-17T17:51:51.073Z,85.20
2019-05-17T17:54:19.317Z,83.60
2019-05-17T17:56:47.591Z,83.10
2019-05-17T17:59:15.833Z,81.50
2019-05-17T18:01:44.140Z,83.30
2019-05-17T18:04:12.392Z,84.80
2019-05-17T18:06:40.639Z,85.40
2019-05-17T18:09:08.913Z,85.10
2019-05-17T18:11:37.145Z,85.90
2019-05-17T18:14:13.050Z,87.50
2019-05-17T18:16:35.420Z,87.90
2019-05-17T18:19:03.696Z,87.70
2019-05-17T18:21:31.941Z,87.90
2019-05-17T18:24:00.218Z,86.60
2019-05-17T18:26:28.455Z,86.00
2019-05-17T18:28:56.722Z,86.10
2019-05-17T18:31:24.959Z,86.10
2019-05-17T18:33:53.251Z,86.40
2019-05-17T18:36:21.480Z,87.10
2019-05-17T18:38:50.593Z,87.30
2019-05-17T18:41:18.896Z,87.10
2019-05-17T18:43:47.158Z,85.90
2019-05-17T18:46:15.406Z,85.90
2019-05-17T18:48:43.660Z,86.10
2019-05-17T18:51:11.966Z,87.10
2019-05-17T18:53:40.495Z,87.00
2019-05-17T18:56:08.735Z,87.30
2019-05-17T18:58:39.274Z,86.90
2019-05-17T19:01:06.979Z,87.10
2019-05-17T19:03:35.243Z,87.60
2019-05-17T19:06:03.488Z,87.80
2019-05-17T19:08:31.746Z,88.00
2019-05-17T19:10:59.997Z,88.00
2019-05-17T19:13:28.233Z,87.80
2019-05-17T19:15:56.496Z,87.70
2019-05-17T19:18:24.743Z,88.00
2019-05-17T19:20:52.992Z,88.90
2019-05-17T19:23:21.277Z,89.70
2019-05-17T19:25:49.525Z,90.00
2019-05-17T19:28:17.764Z,90.30
2019-05-17T19:30:46.023Z,90.00
2019-05-17T19:33:14.248Z,89.60
2019-05-17T19:35:42.516Z,89.60
2019-05-17T19:38:10.754Z,89.80
2019-05-17T19:40:39.015Z,90.20
2019-05-17T19:43:07.264Z,90.10
2019-05-17T19:45:35.529Z,90.00
2019-05-17T19:48:03.925Z,90.00
2019-05-17T19:50:32.350Z,90.00
2019-05-17T19:53:00.588Z,90.00
2019-05-17T19:55:28.851Z,90.00
2019-05-17T19:57:57.111Z,90.10
2019-05-17T20:00:25.361Z,90.30
2019-05-17T20:02:53.610Z,90.10
2019-05-17T20:05:21.893Z,90.10
2019-05-17T20:07:50.196Z,89.40
2019-05-17T20:12:39.451Z,90.00
2019-05-17T20:15:17.241Z,90.50
2019-05-17T20:17:37.926Z,90.80
2019-05-17T20:20:06.746Z,90.70
2019-05-17T20:22:35.026Z,91.10
2019-05-17T20:25:04.317Z,91.40
2019-05-17T20:27:32.576Z,91.40
2019-05-17T20:30:00.824Z,91.30
2019-05-17T20:32:29.087Z,91.10
2019-05-17T20:34:57.321Z,91.10
2019-05-17T20:37:25.581Z,91.30
2019-05-17T20:39:53.814Z,91.70
2019-05-17T20:42:22.064Z,91.50
2019-05-17T20:44:50.313Z,92.00
2019-05-17T20:47:18.561Z,92.40
2019-05-17T20:49:47.184Z,92.00
2019-05-17T20:52:15.450Z,91.90
2019-05-17T20:54:43.690Z,92.10
2019-05-17T20:57:11.951Z,92.40
2019-05-17T20:59:40.211Z,92.70
2019-05-17T21:02:08.483Z,93.00
2019-05-17T21:04:36.781Z,92.70
2019-05-17T21:07:05.056Z,92.60
2019-05-17T21:09:33.301Z,92.50
2019-05-17T21:12:01.589Z,93.00
2019-05-17T21:14:29.834Z,93.00
2019-05-17T21:16:58.111Z,92.70
2019-05-17T21:19:26.355Z,92.40
2019-05-17T21:21:54.582Z,92.70
2019-05-17T21:24:22.848Z,92.10
2019-05-17T21:26:51.106Z,91.90
2019-05-17T21:29:19.384Z,92.00
2019-05-17T21:31:47.649Z,92.10
2019-05-17T21:34:15.904Z,91.90
2019-05-17T21:36:44.154Z,92.20
2019-05-17T21:39:12.465Z,92.20
2019-05-17T21:41:40.761Z,92.60
2019-05-17T21:44:09.000Z,92.80
2019-05-17T21:46:37.237Z,93.20
2019-05-17T21:49:05.515Z,93.10
2019-05-17T21:51:33.742Z,92.90
2019-05-17T21:54:01.989Z,92.80
2019-05-17T21:56:30.236Z,92.60
2019-05-17T21:58:58.489Z,92.50
2019-05-17T22:01:26.973Z,92.70
2019-05-17T22:03:55.225Z,92.50
2019-05-17T22:06:23.698Z,92.40
2019-05-17T22:08:51.947Z,92.50
2019-05-17T22:11:20.247Z,92.50
2019-05-17T22:13:48.493Z,92.70
2019-05-17T22:16:19.937Z,92.90
2019-05-17T22:18:46.756Z,92.80
2019-05-17T22:21:14.997Z,92.90
2019-05-17T22:23:43.230Z,93.30
2019-05-17T22:26:11.480Z,93.40
2019-05-17T22:28:39.700Z,93.20
2019-05-17T22:31:07.957Z,93.40
2019-05-17T22:33:36.215Z,93.00
2019-05-17T22:36:04.479Z,93.00
2019-05-17T22:38:32.702Z,93.10
2019-05-17T22:41:01.020Z,93.00
2019-05-17T22:43:29.277Z,93.10
2019-05-17T22:45:57.545Z,93.10
2019-05-17T22:48:25.769Z,92.90
2019-05-17T22:50:54.029Z,92.80
2019-05-17T22:53:22.285Z,92.70
2019-05-17T22:55:50.547Z,92.60
2019-05-17T22:58:18.785Z,92.50
2019-05-17T23:00:47.031Z,92.60
2019-05-17T23:03:15.299Z,92.60
2019-05-17T23:05:43.548Z,92.50
2019-05-17T23:08:11.798Z,92.40
2019-05-17T23:10:40.072Z,92.50
2019-05-17T23:13:08.296Z,92.60
2019-05-17T23:15:38.200Z,92.60
2019-05-17T23:18:06.448Z,92.50
2019-05-17T23:20:34.693Z,92.60
2019-05-17T23:23:02.986Z,92.50
2019-05-17T23:25:31.220Z,92.50
2019-05-17T23:27:59.481Z,92.30
2019-05-17T23:30:27.766Z,92.40
2019-05-17T23:32:56.022Z,92.50
2019-05-17T23:35:24.329Z,92.60
2019-05-17T23:37:52.588Z,92.50
2019-05-17T23:40:20.842Z,92.50
2019-05-17T23:42:49.088Z,92.40
2019-05-17T23:45:17.324Z,92.50
2019-05-17T23:47:45.649Z,92.40
2019-05-17T23:50:13.884Z,92.50
2019-05-17T23:52:42.210Z,92.50
2019-05-17T23:55:10.433Z,92.40
2019-05-17T23:57:38.680Z,92.50
